Time;durP1;ratioP1;P1;durP2;ratioP2;P2;SDS_P1;SDS_P2;PMS_P1;PMS_P2;Temp;Humidity;BMP_temperature;BMP_pressure;BME280_temperature;BME280_humidity;BME280_pressure;Samples;Min_cycle;Max_cycle;Signal;HPM_P1;HPM_P2
2021/07/29 00:00:04;;;;;;;0.40;0.20;;;18.70;1.00;;;;;;4935186;29;20950;-64
2021/07/29 00:02:30;;;;;;;0.40;0.20;;;18.50;1.00;;;;;;4936422;29;20641;-65
2021/07/29 00:04:55;;;;;;;0.40;0.20;;;18.50;1.00;;;;;;4936143;29;20448;-65
2021/07/29 00:07:21;;;;;;;3.50;0.40;;;18.30;1.00;;;;;;4935987;29;20261;-65
2021/07/29 00:09:47;;;;;;;0.40;0.20;;;18.30;1.00;;;;;;4936397;29;20231;-64
2021/07/29 00:12:13;;;;;;;0.50;0.20;;;18.30;1.00;;;;;;4936438;29;20217;-64
2021/07/29 00:14:41;;;;;;;0.80;0.60;;;18.30;1.00;;;;;;4936610;29;20428;-64
2021/07/29 00:17:16;;;;;;;2.40;2.30;;;18.20;1.00;;;;;;4919419;29;20483;-64
2021/07/29 00:19:42;;;;;;;3.13;1.23;;;18.10;1.00;;;;;;4936057;29;20818;-64
2021/07/29 00:22:07;;;;;;;0.50;0.20;;;17.90;1.00;;;;;;4919496;29;20949;-64
2021/07/29 00:24:33;;;;;;;0.40;0.20;;;17.80;1.00;;;;;;4936070;29;20225;-64
2021/07/29 00:26:58;;;;;;;0.40;0.20;;;17.70;1.00;;;;;;4919260;29;20200;-64
2021/07/29 00:29:24;;;;;;;0.40;0.20;;;17.80;1.00;;;;;;4919280;29;20209;-64
2021/07/29 00:31:50;;;;;;;1.20;1.03;;;17.80;1.00;;;;;;4936199;29;20211;-64
2021/07/29 00:34:15;;;;;;;0.40;0.20;;;17.90;1.00;;;;;;4936135;29;20185;-64
2021/07/29 00:36:41;;;;;;;0.60;0.50;;;17.80;1.00;;;;;;4935965;29;20181;-64
2021/07/29 00:39:06;;;;;;;0.40;0.20;;;17.70;1.00;;;;;;4935693;29;20594;-64
2021/07/29 00:41:32;;;;;;;0.40;0.17;;;17.70;1.00;;;;;;4935887;29;20184;-64
2021/07/29 00:43:59;;;;;;;0.50;0.20;;;17.60;1.00;;;;;;4936061;29;20219;-64
2021/07/29 00:46:25;;;;;;;0.40;0.20;;;17.70;1.00;;;;;;4935917;29;20181;-64
2021/07/29 00:48:51;;;;;;;0.40;0.20;;;17.70;1.00;;;;;;4935782;29;20451;-65
2021/07/29 00:51:17;;;;;;;0.40;0.20;;;17.70;1.00;;;;;;4919069;29;20185;-64
2021/07/29 00:53:43;;;;;;;0.40;0.20;;;17.70;1.00;;;;;;4935996;29;20432;-65
2021/07/29 00:56:10;;;;;;;0.40;0.20;;;17.70;1.00;;;;;;4935790;29;20436;-64
2021/07/29 00:58:36;;;;;;;0.50;0.20;;;17.60;1.00;;;;;;4935655;29;20177;-64
2021/07/29 01:01:01;;;;;;;2.60;1.07;;;17.50;1.00;;;;;;4935959;29;20452;-64
2021/07/29 01:03:27;;;;;;;0.60;0.40;;;17.40;1.00;;;;;;4938629;29;20208;-64
2021/07/29 01:05:52;;;;;;;0.40;0.20;;;17.30;1.00;;;;;;4939164;29;20209;-64
2021/07/29 01:08:18;;;;;;;0.40;0.20;;;17.30;1.00;;;;;;4938968;29;20216;-65
2021/07/29 01:10:44;;;;;;;0.40;0.20;;;17.30;1.00;;;;;;4939007;29;20673;-64
2021/07/29 01:13:09;;;;;;;0.40;0.20;;;17.10;1.00;;;;;;4939162;29;20509;-64
2021/07/29 01:15:35;;;;;;;0.63;0.60;;;17.20;1.00;;;;;;4939106;29;20200;-64
2021/07/29 01:18:01;;;;;;;0.40;0.20;;;17.10;1.00;;;;;;4938977;29;20514;-64
2021/07/29 01:20:30;;;;;;;1.03;0.40;;;17.20;1.00;;;;;;4921903;29;20789;-64
2021/07/29 01:22:56;;;;;;;0.40;0.20;;;17.20;1.00;;;;;;4938903;29;20420;-64
2021/07/29 01:25:22;;;;;;;0.40;0.20;;;17.30;1.00;;;;;;4938790;29;20475;-63
2021/07/29 01:27:47;;;;;;;0.97;0.40;;;17.40;1.00;;;;;;4938912;29;20240;-65
2021/07/29 01:30:14;;;;;;;1.10;0.57;;;17.40;1.00;;;;;;4938572;29;20757;-64
2021/07/29 01:32:40;;;;;;;0.40;0.20;;;17.50;1.00;;;;;;4938750;29;20272;-64
2021/07/29 01:35:11;;;;;;;0.40;0.20;;;17.50;1.00;;;;;;4938683;29;20440;-64
2021/07/29 01:37:40;;;;;;;0.47;0.20;;;17.50;1.00;;;;;;4921654;29;20906;-64
2021/07/29 01:40:07;;;;;;;0.40;0.23;;;17.60;1.00;;;;;;4938427;29;20425;-64
2021/07/29 01:42:33;;;;;;;0.40;0.20;;;17.50;1.00;;;;;;4938639;29;20464;-64
2021/07/29 01:44:58;;;;;;;0.73;0.67;;;17.40;1.00;;;;;;4938848;29;20463;-64
2021/07/29 01:47:24;;;;;;;0.40;0.20;;;17.40;1.00;;;;;;4938289;29;20259;-64
2021/07/29 01:49:49;;;;;;;0.40;0.20;;;17.30;1.00;;;;;;4938270;29;20244;-64
2021/07/29 01:52:16;;;;;;;0.40;0.20;;;17.30;1.00;;;;;;4938417;29;20177;-64
2021/07/29 01:54:42;;;;;;;0.60;0.43;;;17.30;1.00;;;;;;4938265;29;20618;-64
2021/07/29 01:57:08;;;;;;;0.40;0.20;;;17.30;1.00;;;;;;4938709;29;20440;-64
2021/07/29 01:59:35;;;;;;;0.40;0.20;;;17.30;1.00;;;;;;4938213;29;20185;-65
2021/07/29 02:02:02;;;;;;;0.40;0.20;;;17.30;1.00;;;;;;4938206;29;20497;-64
2021/07/29 02:04:30;;;;;;;0.40;0.20;;;17.20;1.00;;;;;;4938102;29;20909;-64
2021/07/29 02:06:56;;;;;;;0.40;0.20;;;17.10;1.00;;;;;;4938122;29;20800;-64
2021/07/29 02:09:21;;;;;;;0.40;0.20;;;17.10;1.00;;;;;;4937888;29;20474;-64
2021/07/29 02:11:49;;;;;;;0.40;0.20;;;17.00;1.00;;;;;;4938197;29;20606;-65
2021/07/29 02:14:24;;;;;;;0.40;0.20;;;17.00;1.00;;;;;;4937040;29;20177;-66
2021/07/29 02:16:50;;;;;;;0.40;0.20;;;17.00;1.00;;;;;;4938132;29;20953;-66
2021/07/29 02:19:16;;;;;;;0.40;0.20;;;17.00;1.00;;;;;;4937879;29;20508;-65
2021/07/29 02:21:45;;;;;;;0.47;0.30;;;17.10;1.00;;;;;;4938052;29;20193;-64
2021/07/29 02:24:12;;;;;;;0.40;0.20;;;17.10;1.00;;;;;;4938083;29;20429;-65
2021/07/29 02:26:37;;;;;;;0.50;0.30;;;17.20;1.00;;;;;;4937583;29;20205;-65
2021/07/29 02:29:03;;;;;;;0.40;0.20;;;17.20;1.00;;;;;;4920846;29;20887;-65
2021/07/29 02:31:29;;;;;;;3.80;1.47;;;17.30;1.00;;;;;;4937773;29;20180;-65
2021/07/29 02:33:54;;;;;;;0.40;0.20;;;17.20;1.00;;;;;;4937653;29;20185;-64
2021/07/29 02:36:20;;;;;;;0.40;0.20;;;17.10;1.00;;;;;;4937474;29;20625;-65
2021/07/29 02:38:45;;;;;;;0.40;0.20;;;17.20;1.00;;;;;;4937424;29;20184;-65
2021/07/29 02:41:11;;;;;;;0.67;0.30;;;17.30;1.00;;;;;;4937879;29;20204;-66
2021/07/29 02:43:36;;;;;;;0.40;0.20;;;17.30;1.00;;;;;;4937397;29;20173;-65
2021/07/29 02:46:02;;;;;;;0.70;0.40;;;17.40;1.00;;;;;;4937398;29;20173;-65
2021/07/29 02:48:27;;;;;;;0.40;0.20;;;17.30;1.00;;;;;;4920366;29;20192;-65
2021/07/29 02:50:56;;;;;;;0.40;0.20;;;17.40;1.00;;;;;;4937486;29;20311;-65
2021/07/29 02:53:23;;;;;;;0.40;0.20;;;17.40;1.00;;;;;;4937233;29;20181;-65
2021/07/29 02:55:49;;;;;;;0.60;0.40;;;17.40;1.00;;;;;;4937238;29;20436;-65
2021/07/29 02:58:15;;;;;;;0.50;0.30;;;17.40;1.00;;;;;;4937004;29;20440;-65
2021/07/29 03:00:40;;;;;;;0.40;0.20;;;17.30;1.00;;;;;;4937012;29;20630;-65
2021/07/29 03:03:06;;;;;;;0.97;0.37;;;17.40;1.00;;;;;;4937096;29;20428;-66
2021/07/29 03:05:32;;;;;;;0.50;0.30;;;17.40;1.00;;;;;;4936890;29;20276;-65
2021/07/29 03:07:57;;;;;;;0.40;0.20;;;17.50;1.00;;;;;;4936913;29;20231;-65
2021/07/29 03:10:23;;;;;;;0.40;0.20;;;17.50;1.00;;;;;;4919905;29;20238;-65
2021/07/29 03:12:48;;;;;;;0.50;0.20;;;17.50;1.00;;;;;;4936854;29;20185;-65
2021/07/29 03:15:14;;;;;;;0.90;0.50;;;17.60;1.00;;;;;;4920097;29;20518;-64
2021/07/29 03:17:39;;;;;;;0.50;0.30;;;17.50;1.00;;;;;;4936626;29;20224;-64
2021/07/29 03:20:05;;;;;;;0.40;0.20;;;17.50;1.00;;;;;;4936723;29;20273;-64
2021/07/29 03:22:31;;;;;;;0.40;0.20;;;17.70;1.00;;;;;;4936789;29;20212;-64
2021/07/29 03:24:57;;;;;;;0.40;0.20;;;17.80;1.00;;;;;;4936351;29;20433;-64
2021/07/29 03:27:22;;;;;;;0.60;0.50;;;17.90;99.90;;;;;;4936611;29;20508;-64
2021/07/29 03:29:48;;;;;;;0.40;0.30;;;17.90;99.90;;;;;;4936438;29;20259;-64
2021/07/29 03:32:13;;;;;;;0.67;0.40;;;17.90;99.90;;;;;;4936602;29;20305;-65
2021/07/29 03:34:39;;;;;;;0.93;0.53;;;18.00;99.90;;;;;;4936515;29;20232;-64
2021/07/29 03:37:04;;;;;;;0.40;0.20;;;17.90;99.90;;;;;;4936366;29;20314;-64
2021/07/29 03:39:30;;;;;;;0.40;0.10;;;17.90;99.90;;;;;;4936370;29;20196;-64
2021/07/29 03:41:55;;;;;;;0.50;0.37;;;18.00;99.90;;;;;;4936360;29;20197;-64
2021/07/29 03:44:21;;;;;;;0.40;0.20;;;18.00;99.90;;;;;;4936435;29;20181;-64
2021/07/29 03:46:46;;;;;;;0.60;0.40;;;17.90;99.90;;;;;;4936273;29;20199;-64
2021/07/29 03:49:12;;;;;;;0.40;0.20;;;17.90;99.90;;;;;;4936185;29;20213;-64
2021/07/29 03:51:37;;;;;;;0.50;0.20;;;18.00;99.90;;;;;;4936361;29;20196;-64
2021/07/29 03:54:03;;;;;;;0.40;0.20;;;18.10;99.90;;;;;;4936474;29;20573;-64
2021/07/29 03:56:28;;;;;;;0.40;0.20;;;18.10;26.00;;;;;;4936299;29;20200;-65
2021/07/29 03:58:54;;;;;;;0.50;0.20;;;18.20;17.80;;;;;;4936108;29;20508;-65
2021/07/29 04:01:21;;;;;;;0.40;0.20;;;18.20;1.00;;;;;;4936476;29;20483;-64
2021/07/29 04:03:47;;;;;;;0.40;0.20;;;18.10;27.00;;;;;;4936249;29;20173;-64
2021/07/29 04:06:17;;;;;;;0.67;0.60;;;18.10;99.90;;;;;;4935887;29;20444;-64
2021/07/29 04:08:42;;;;;;;0.60;0.60;;;18.10;4.90;;;;;;4936051;29;20983;-65
2021/07/29 04:11:08;;;;;;;0.60;0.47;;;18.00;99.90;;;;;;4936077;29;20524;-65
2021/07/29 04:13:33;;;;;;;0.83;0.83;;;17.90;99.90;;;;;;4936402;29;20565;-65
2021/07/29 04:16:00;;;;;;;2.70;1.33;;;18.00;99.90;;;;;;4936207;29;20192;-64
2021/07/29 04:18:26;;;;;;;0.60;0.57;;;17.90;99.90;;;;;;4936162;29;20556;-64
2021/07/29 04:20:52;;;;;;;0.57;0.30;;;17.90;99.90;;;;;;4936164;29;20432;-64
2021/07/29 04:23:17;;;;;;;0.40;0.20;;;18.20;99.90;;;;;;4936008;29;20911;-65
2021/07/29 04:25:43;;;;;;;0.80;0.80;;;18.10;99.10;;;;;;4936011;29;20276;-64
2021/07/29 04:28:08;;;;;;;0.43;0.20;;;18.10;99.90;;;;;;4935822;29;20259;-64
2021/07/29 04:30:34;;;;;;;1.13;1.03;;;18.10;99.90;;;;;;4936259;29;20672;-64
2021/07/29 04:32:59;;;;;;;0.40;0.20;;;18.10;99.90;;;;;;4936595;29;20177;-65
2021/07/29 04:35:25;;;;;;;0.40;0.20;;;18.10;99.90;;;;;;4936586;29;20185;-65
2021/07/29 04:37:50;;;;;;;0.40;0.20;;;18.30;54.40;;;;;;4938039;29;20209;-65
2021/07/29 04:40:16;;;;;;;0.53;0.47;;;18.40;1.00;;;;;;4939394;29;20188;-65
2021/07/29 04:42:41;;;;;;;0.67;0.67;;;18.50;1.00;;;;;;4939729;29;20192;-65
2021/07/29 04:45:07;;;;;;;0.77;0.53;;;19.20;99.90;;;;;;4939593;29;20185;-65
2021/07/29 04:47:33;;;;;;;0.40;0.20;;;19.20;1.00;;;;;;4939371;29;20177;-65
2021/07/29 04:49:59;;;;;;;0.50;0.30;;;19.20;99.90;;;;;;4939294;29;20535;-65
2021/07/29 04:52:24;;;;;;;0.50;0.40;;;18.80;99.90;;;;;;4939357;29;20173;-65
2021/07/29 04:54:50;;;;;;;0.40;0.20;;;18.40;1.00;;;;;;4939349;29;20265;-65
2021/07/29 04:57:15;;;;;;;0.40;0.20;;;18.40;1.00;;;;;;4939129;29;20686;-65
2021/07/29 04:59:42;;;;;;;0.50;0.20;;;18.60;1.00;;;;;;4939430;29;20202;-65
2021/07/29 05:02:08;;;;;;;0.73;0.40;;;19.50;99.90;;;;;;4939212;29;20185;-65
2021/07/29 05:04:34;;;;;;;0.40;0.20;;;20.50;1.00;;;;;;4939163;29;20428;-65
2021/07/29 05:06:59;;;;;;;0.47;0.20;;;20.90;1.00;;;;;;4938881;29;20204;-65
2021/07/29 05:09:25;;;;;;;0.60;0.37;;;20.60;1.00;;;;;;4938771;29;20464;-65
2021/07/29 05:11:50;;;;;;;0.40;0.20;;;21.00;1.00;;;;;;4939002;29;20201;-65
2021/07/29 05:14:16;;;;;;;0.47;0.20;;;21.80;1.00;;;;;;4939150;29;20380;-66
2021/07/29 05:16:43;;;;;;;0.40;0.20;;;21.90;1.00;;;;;;4939042;29;20209;-65
2021/07/29 05:19:09;;;;;;;0.70;0.60;;;21.60;99.90;;;;;;4938672;29;20437;-65
2021/07/29 05:21:34;;;;;;;0.50;0.20;;;22.10;1.00;;;;;;4938854;29;20448;-65
2021/07/29 05:24:03;;;;;;;0.50;0.20;;;22.90;99.90;;;;;;4938932;29;20570;-65
2021/07/29 05:26:28;;;;;;;0.60;0.37;;;23.40;99.90;;;;;;4938799;29;20191;-65
2021/07/29 05:28:54;;;;;;;0.50;0.20;;;24.10;1.00;;;;;;4938518;29;20519;-65
2021/07/29 05:31:20;;;;;;;0.67;0.30;;;24.60;1.00;;;;;;4922019;29;20212;-65
2021/07/29 05:33:45;;;;;;;1.47;1.10;;;23.90;1.00;;;;;;4938565;29;20554;-65
2021/07/29 05:36:11;;;;;;;3.53;2.00;;;24.10;1.00;;;;;;4938675;29;20233;-65
2021/07/29 05:38:36;;;;;;;0.53;0.27;;;23.80;1.00;;;;;;4938449;29;20176;-65
2021/07/29 05:41:09;;;;;;;0.80;0.60;;;24.10;1.00;;;;;;4938709;29;20177;-66
2021/07/29 05:43:38;;;;;;;0.80;0.63;;;23.90;1.00;;;;;;4938586;29;20545;-66
2021/07/29 05:46:11;;;;;;;0.50;0.20;;;23.70;1.00;;;;;;4938381;29;20440;-66
2021/07/29 05:48:38;;;;;;;1.00;0.23;;;23.60;1.00;;;;;;4921159;29;20922;-66
2021/07/29 05:51:04;;;;;;;0.60;0.40;;;23.60;1.00;;;;;;4921415;29;20472;-66
2021/07/29 05:53:30;;;;;;;1.03;1.00;;;23.30;1.00;;;;;;4938648;29;20432;-66
2021/07/29 05:55:56;;;;;;;0.50;0.20;;;23.60;1.00;;;;;;4938543;29;20739;-65
2021/07/29 05:58:22;;;;;;;0.50;0.20;;;24.40;1.00;;;;;;4938272;29;20189;-67
2021/07/29 06:00:48;;;;;;;0.60;0.40;;;25.10;1.00;;;;;;4939821;29;20432;-65
2021/07/29 06:03:13;;;;;;;0.70;0.40;;;24.80;1.00;;;;;;4939918;29;20424;-66
2021/07/29 06:05:39;;;;;;;0.50;0.20;;;25.40;1.00;;;;;;4940031;29;20460;-65
2021/07/29 06:08:05;;;;;;;0.50;0.23;;;26.20;1.00;;;;;;4939716;29;20211;-65
2021/07/29 06:10:31;;;;;;;0.70;0.30;;;27.00;1.00;;;;;;4922927;29;20307;-66
2021/07/29 06:12:56;;;;;;;0.50;0.20;;;27.00;1.00;;;;;;4940045;29;20475;-66
2021/07/29 06:15:22;;;;;;;0.50;0.30;;;25.60;1.00;;;;;;4941047;29;20182;-66
2021/07/29 06:17:54;;;;;;;0.60;0.47;;;25.30;1.00;;;;;;4940892;29;20515;-65
2021/07/29 06:20:20;;;;;;;1.63;1.37;;;24.90;1.00;;;;;;4941473;29;20200;-65
2021/07/29 06:22:45;;;;;;;0.70;0.53;;;24.30;1.00;;;;;;4941647;29;20424;-65
2021/07/29 06:25:13;;;;;;;0.60;0.43;;;23.70;1.00;;;;;;4942233;29;20562;-66
2021/07/29 06:27:38;;;;;;;0.60;0.30;;;23.30;1.00;;;;;;4940434;29;20626;-65
2021/07/29 06:30:05;;;;;;;0.70;0.40;;;24.10;1.00;;;;;;4923497;29;20482;-65
2021/07/29 06:32:31;;;;;;;0.57;0.23;;;24.30;1.00;;;;;;4940398;29;20181;-66
2021/07/29 06:34:56;;;;;;;1.10;0.67;;;24.40;1.00;;;;;;4937567;29;20511;-65
2021/07/29 06:37:22;;;;;;;0.60;0.30;;;24.00;1.00;;;;;;4937857;29;20595;-65
2021/07/29 06:39:47;;;;;;;0.50;0.20;;;23.60;1.00;;;;;;4937636;29;20181;-65
2021/07/29 06:42:13;;;;;;;0.60;0.50;;;23.20;1.00;;;;;;4937445;29;20192;-65
2021/07/29 06:44:41;;;;;;;1.10;1.00;;;22.20;99.10;;;;;;4938260;28;20320;-69
2021/07/29 06:47:11;;;;;;;0.50;0.30;;;22.20;99.90;;;;;;4966739;28;20186;-67
2021/07/29 06:49:37;;;;;;;1.63;0.50;;;23.50;1.00;;;;;;4968806;28;20478;-67
2021/07/29 06:52:02;;;;;;;1.00;0.40;;;23.70;1.00;;;;;;4975510;28;20454;-67
2021/07/29 06:54:28;;;;;;;0.50;0.20;;;24.80;1.00;;;;;;4958474;28;20195;-68
2021/07/29 06:56:53;;;;;;;0.50;0.20;;;25.80;1.00;;;;;;4956100;29;20184;-68
2021/07/29 06:59:19;;;;;;;0.60;0.37;;;26.10;1.00;;;;;;4955826;28;20219;-66
2021/07/29 07:01:44;;;;;;;0.50;0.20;;;25.70;1.00;;;;;;4956564;28;20188;-67
2021/07/29 07:04:10;;;;;;;0.50;0.20;;;26.70;1.00;;;;;;4975749;28;20215;-66
2021/07/29 07:06:36;;;;;;;0.50;0.23;;;25.40;1.00;;;;;;4974987;28;20199;-64
2021/07/29 07:09:01;;;;;;;1.00;0.50;;;24.70;1.00;;;;;;4975327;28;20175;-65
2021/07/29 07:11:27;;;;;;;1.33;0.83;;;24.00;1.00;;;;;;4975277;28;20245;-65
2021/07/29 07:13:52;;;;;;;0.90;0.77;;;24.70;1.00;;;;;;4975396;28;20179;-69
2021/07/29 07:16:18;;;;;;;1.83;0.70;;;25.60;1.00;;;;;;4975372;28;20183;-67
2021/07/29 07:18:43;;;;;;;1.00;0.50;;;23.80;1.00;;;;;;4951230;29;20200;-67
2021/07/29 07:21:11;;;;;;;2.83;0.67;;;23.80;1.00;;;;;;4955818;29;20602;-67
2021/07/29 07:23:40;;;;;;;0.63;0.53;;;23.60;1.00;;;;;;4955804;29;20544;-67
2021/07/29 07:26:13;;;;;;;2.00;0.50;;;23.40;1.00;;;;;;4938736;29;20463;-67
2021/07/29 07:28:39;;;;;;;0.60;0.43;;;22.90;1.00;;;;;;4955511;29;20431;-67
2021/07/29 07:31:05;;;;;;;0.50;0.30;;;22.30;1.00;;;;;;4947123;29;21006;-66
2021/07/29 07:33:30;;;;;;;0.70;0.60;;;21.90;1.00;;;;;;4941422;29;20183;-67
2021/07/29 07:35:56;;;;;;;0.90;0.60;;;21.70;1.00;;;;;;4938721;29;20646;-68
2021/07/29 07:38:21;;;;;;;1.13;0.40;;;21.30;12.50;;;;;;4945906;29;20189;-68
2021/07/29 07:40:47;;;;;;;0.50;0.20;;;21.30;97.50;;;;;;4936571;29;20185;-67
2021/07/29 07:43:12;;;;;;;0.60;0.50;;;21.60;25.10;;;;;;4936775;29;20193;-69
2021/07/29 07:45:38;;;;;;;0.50;0.20;;;21.80;1.00;;;;;;4936466;29;20177;-68
2021/07/29 07:48:04;;;;;;;0.50;0.20;;;21.80;9.90;;;;;;4954944;29;20184;-67
2021/07/29 07:50:30;;;;;;;0.50;0.30;;;21.50;99.90;;;;;;4938586;29;20224;-66
2021/07/29 07:52:55;;;;;;;0.80;0.50;;;21.60;99.90;;;;;;4950643;28;20843;-67
2021/07/29 07:55:21;;;;;;;1.90;0.50;;;21.10;99.90;;;;;;4974724;28;20281;-66
2021/07/29 07:57:46;;;;;;;0.60;0.40;;;20.70;99.90;;;;;;4973378;28;20613;-66
2021/07/29 08:00:12;;;;;;;1.00;0.50;;;20.40;1.00;;;;;;4959213;28;20196;-66
2021/07/29 08:02:37;;;;;;;0.93;0.40;;;20.10;6.80;;;;;;4960292;28;20188;-65
2021/07/29 08:05:03;;;;;;;0.70;0.57;;;19.60;99.90;;;;;;4973002;28;20187;-66
2021/07/29 08:07:29;;;;;;;0.60;0.50;;;19.80;1.00;;;;;;4974293;28;20227;-65
2021/07/29 08:09:56;;;;;;;0.50;0.20;;;20.10;1.00;;;;;;4974679;28;20951;-65
2021/07/29 08:12:22;;;;;;;0.70;0.50;;;20.50;1.00;;;;;;4977851;28;20168;-66
2021/07/29 08:14:47;;;;;;;0.80;0.63;;;20.60;99.90;;;;;;4961518;28;20446;-66
2021/07/29 08:17:13;;;;;;;0.77;0.47;;;20.50;99.90;;;;;;4961342;28;20893;-66
2021/07/29 08:19:39;;;;;;;1.63;0.40;;;20.50;75.70;;;;;;4975506;28;20586;-67
2021/07/29 08:22:04;;;;;;;0.50;0.20;;;20.80;1.00;;;;;;4978451;28;20250;-66
2021/07/29 08:24:31;;;;;;;4.03;2.47;;;20.60;99.90;;;;;;4961269;28;20195;-67
2021/07/29 08:26:57;;;;;;;0.63;0.30;;;21.00;99.90;;;;;;4978363;28;20179;-67
2021/07/29 08:29:23;;;;;;;3.70;0.30;;;21.10;99.90;;;;;;4978196;28;20675;-66
2021/07/29 08:31:48;;;;;;;0.60;0.30;;;21.30;99.90;;;;;;4961054;28;20183;-67
2021/07/29 08:34:14;;;;;;;0.50;0.20;;;21.50;54.80;;;;;;4978156;28;20192;-67
2021/07/29 08:36:41;;;;;;;0.60;0.60;;;21.30;1.60;;;;;;4977935;28;20188;-67
2021/07/29 08:39:07;;;;;;;1.80;0.50;;;21.30;18.80;;;;;;4960200;28;20259;-66
2021/07/29 08:41:34;;;;;;;0.60;0.30;;;21.20;38.10;;;;;;4941976;29;21027;-69
2021/07/29 08:44:00;;;;;;;0.60;0.40;;;21.30;1.00;;;;;;4958625;29;20448;-66
2021/07/29 08:46:26;;;;;;;1.00;0.83;;;21.30;1.00;;;;;;4958581;29;20576;-66
2021/07/29 08:48:51;;;;;;;0.50;0.30;;;20.80;25.60;;;;;;4958365;29;20502;-66
2021/07/29 08:51:20;;;;;;;1.40;1.30;;;20.70;58.60;;;;;;4958952;29;20216;-66
2021/07/29 08:53:48;;;;;;;1.87;1.47;;;20.40;99.90;;;;;;4960549;28;20271;-68
2021/07/29 08:56:14;;;;;;;0.50;0.20;;;20.50;70.70;;;;;;4960578;28;20764;-66
2021/07/29 08:58:41;;;;;;;1.13;0.67;;;20.60;1.00;;;;;;4960398;28;20437;-71
2021/07/29 09:01:09;;;;;;;1.03;0.30;;;21.00;1.00;;;;;;4973126;28;20200;-67
2021/07/29 09:03:35;;;;;;;0.50;0.30;;;21.60;1.00;;;;;;4958342;29;20431;-67
2021/07/29 09:06:09;;;;;;;0.60;0.47;;;22.10;1.00;;;;;;4971928;28;20489;-68
2021/07/29 09:08:48;;;;;;;1.07;0.60;;;22.30;1.00;;;;;;4971583;28;20442;-68
2021/07/29 09:11:37;;;;;;;0.90;0.60;;;22.30;1.00;;;;;;4958489;29;20801;-68
2021/07/29 09:14:16;;;;;;;0.50;0.20;;;22.40;1.00;;;;;;4971722;28;20465;-67
2021/07/29 09:16:58;;;;;;;0.70;0.60;;;22.40;1.00;;;;;;4960300;28;20427;-67
2021/07/29 09:19:37;;;;;;;0.50;0.20;;;22.10;1.00;;;;;;4977795;28;20434;-67
2021/07/29 09:22:11;;;;;;;0.50;0.20;;;22.00;1.00;;;;;;4977573;28;20430;-68
2021/07/29 09:24:54;;;;;;;0.50;0.20;;;21.80;1.00;;;;;;4977091;28;20481;-67
2021/07/29 09:27:20;;;;;;;0.53;0.23;;;21.30;1.00;;;;;;4971282;28;20831;-67
2021/07/29 09:29:45;;;;;;;1.33;0.37;;;21.50;1.00;;;;;;4955949;29;20491;-67
2021/07/29 09:32:11;;;;;;;0.50;0.20;;;21.70;1.00;;;;;;4940218;29;20200;-67
2021/07/29 09:34:48;;;;;;;0.70;0.63;;;21.90;1.00;;;;;;4957799;29;20606;-67
2021/07/29 09:37:15;;;;;;;0.50;0.20;;;21.60;1.00;;;;;;4955298;29;20266;-67
2021/07/29 09:39:40;;;;;;;0.60;0.27;;;21.50;1.00;;;;;;4938340;29;20472;-67
2021/07/29 09:42:23;;;;;;;0.50;0.20;;;21.70;1.00;;;;;;4938763;29;20452;-67
2021/07/29 09:44:50;;;;;;;1.27;0.80;;;21.90;1.00;;;;;;4938401;29;20213;-67
2021/07/29 09:47:20;;;;;;;0.50;0.20;;;21.90;1.00;;;;;;4938784;29;20433;-67
2021/07/29 09:49:48;;;;;;;0.50;0.20;;;21.80;1.00;;;;;;4938221;29;20464;-67
2021/07/29 09:52:15;;;;;;;0.50;0.20;;;21.60;1.00;;;;;;4938409;29;20469;-67
2021/07/29 09:54:45;;;;;;;0.60;0.20;;;22.00;1.00;;;;;;4938294;29;20441;-67
2021/07/29 09:57:11;;;;;;;0.90;0.63;;;22.20;1.00;;;;;;4938323;29;20511;-67
2021/07/29 09:59:38;;;;;;;0.60;0.40;;;22.30;1.00;;;;;;4937810;29;20469;-67
2021/07/29 10:02:04;;;;;;;0.50;0.20;;;22.60;1.00;;;;;;4938103;29;20760;-67
2021/07/29 10:04:48;;;;;;;0.50;0.20;;;22.30;1.00;;;;;;4938126;29;20432;-67
2021/07/29 10:07:27;;;;;;;0.93;0.50;;;22.20;1.00;;;;;;4937935;29;20496;-67
2021/07/29 10:09:54;;;;;;;0.60;0.50;;;22.30;1.00;;;;;;4937534;29;20464;-67
2021/07/29 10:15:39;;;;;;;0.50;0.30;;;22.30;1.00;;;;;;4938066;29;20431;-68
2021/07/29 10:18:06;;;;;;;0.60;0.30;;;22.70;1.00;;;;;;4937707;29;20427;-68
2021/07/29 10:20:33;;;;;;;0.53;0.23;;;22.40;1.00;;;;;;4921012;29;20511;-68
2021/07/29 10:23:13;;;;;;;0.50;0.20;;;22.50;1.00;;;;;;4937846;29;20420;-68
2021/07/29 10:25:58;;;;;;;0.50;0.30;;;23.00;1.00;;;;;;4937692;29;20543;-68
2021/07/29 10:28:28;;;;;;;0.80;0.43;;;23.00;1.00;;;;;;4941348;28;20519;-70
2021/07/29 10:30:56;;;;;;;0.60;0.30;;;22.50;1.00;;;;;;4947715;29;21028;-68
2021/07/29 10:33:24;;;;;;;0.50;0.20;;;22.30;1.00;;;;;;4942937;28;20769;-67
2021/07/29 10:35:53;;;;;;;2.30;2.20;;;22.30;1.00;;;;;;4919448;29;20512;-67
2021/07/29 10:38:37;;;;;;;0.50;0.20;;;22.10;1.00;;;;;;4944474;29;20804;-67
2021/07/29 10:41:05;;;;;;;0.80;0.50;;;21.80;1.00;;;;;;4937224;29;20798;-68
2021/07/29 10:43:30;;;;;;;3.60;1.17;;;21.70;1.00;;;;;;4937285;29;20436;-67
2021/07/29 10:46:01;;;;;;;0.80;0.53;;;21.80;1.00;;;;;;4948604;29;20424;-68
2021/07/29 10:51:11;;;;;;;0.50;0.20;;;22.20;1.00;;;;;;4956576;29;20803;-66
2021/07/29 10:53:44;;;;;;;0.60;0.30;;;22.20;1.00;;;;;;4956453;29;20432;-67
2021/07/29 10:56:22;;;;;;;0.50;0.20;;;22.00;1.00;;;;;;5070821;28;20551;-68
2021/07/29 10:58:49;;;;;;;0.50;0.30;;;22.20;1.00;;;;;;5070886;28;20433;-69
2021/07/29 11:01:16;;;;;;;0.70;0.40;;;22.10;1.00;;;;;;5070915;28;20423;-68
2021/07/29 11:03:50;;;;;;;0.90;0.50;;;21.70;1.00;;;;;;5089229;28;20448;-69
2021/07/29 11:06:36;;;;;;;0.70;0.40;;;21.60;1.00;;;;;;5090823;28;20432;-69
2021/07/29 11:09:15;;;;;;;0.50;0.20;;;21.30;1.00;;;;;;5089801;28;20983;-68
2021/07/29 11:11:42;;;;;;;0.73;0.40;;;21.70;1.00;;;;;;5089574;28;20476;-68
2021/07/29 11:14:09;;;;;;;0.60;0.30;;;21.90;1.00;;;;;;5090709;28;20437;-68
2021/07/29 11:16:35;;;;;;;1.30;1.20;;;22.10;1.00;;;;;;5090414;28;20426;-68
2021/07/29 11:19:03;;;;;;;0.50;0.20;;;22.20;1.00;;;;;;5090374;28;20813;-67
2021/07/29 11:21:29;;;;;;;0.50;0.20;;;21.80;1.00;;;;;;5090607;28;20421;-69
2021/07/29 11:23:55;;;;;;;1.07;0.67;;;21.70;1.00;;;;;;5090355;28;20437;-69
2021/07/29 11:26:21;;;;;;;0.73;0.43;;;21.40;1.00;;;;;;5089341;28;20490;-68
2021/07/29 11:29:08;;;;;;;0.50;0.20;;;20.90;1.00;;;;;;5090201;28;20274;-67
2021/07/29 11:31:39;;;;;;;0.50;0.20;;;20.80;1.00;;;;;;5090357;28;20171;-67
2021/07/29 11:34:05;;;;;;;0.70;0.40;;;21.00;1.00;;;;;;5090471;28;20418;-70
2021/07/29 11:36:34;;;;;;;1.47;0.73;;;21.10;1.00;;;;;;5089166;28;20422;-68
2021/07/29 11:39:06;;;;;;;0.60;0.40;;;21.40;1.00;;;;;;5071409;28;20431;-68
2021/07/29 11:41:58;;;;;;;0.60;0.30;;;21.60;1.00;;;;;;5069879;28;20458;-68
2021/07/29 11:44:40;;;;;;;0.60;0.47;;;21.60;1.00;;;;;;5070115;28;20470;-68
2021/07/29 11:47:07;;;;;;;0.60;0.33;;;21.40;1.00;;;;;;5069786;28;20895;-68
2021/07/29 11:49:48;;;;;;;0.50;0.20;;;21.80;1.00;;;;;;5068759;28;20517;-67
2021/07/29 11:52:15;;;;;;;0.50;0.20;;;22.40;1.00;;;;;;5069793;28;20430;-68
2021/07/29 11:54:41;;;;;;;1.87;0.70;;;22.40;1.00;;;;;;5069743;28;20446;-67
2021/07/29 11:57:06;;;;;;;1.00;0.37;;;22.60;1.00;;;;;;5069406;28;21028;-67
2021/07/29 11:59:43;;;;;;;0.50;0.20;;;22.70;1.00;;;;;;5069560;28;20440;-69
2021/07/29 12:02:10;;;;;;;0.50;0.20;;;22.70;1.00;;;;;;5069567;28;20180;-68
2021/07/29 12:04:43;;;;;;;0.50;0.40;;;23.00;1.00;;;;;;5069323;28;20465;-68
2021/07/29 12:07:10;;;;;;;0.57;0.23;;;23.20;1.00;;;;;;5058817;28;20957;-69
2021/07/29 12:09:41;;;;;;;0.73;0.53;;;23.40;1.00;;;;;;5056215;28;20752;-69
2021/07/29 12:12:07;;;;;;;1.03;0.83;;;23.80;1.00;;;;;;5056191;28;20431;-69
2021/07/29 12:14:33;;;;;;;0.70;0.33;;;23.50;1.00;;;;;;5074352;28;20434;-67
2021/07/29 12:16:58;;;;;;;0.67;0.63;;;23.30;1.00;;;;;;5075821;28;20574;-68
2021/07/29 12:19:24;;;;;;;0.90;0.60;;;23.10;1.00;;;;;;5076405;28;20184;-69
2021/07/29 12:21:51;;;;;;;0.90;0.70;;;22.80;1.00;;;;;;5076352;28;20176;-69
2021/07/29 12:24:18;;;;;;;1.77;1.37;;;22.40;1.00;;;;;;5076054;28;20204;-69
2021/07/29 12:27:07;;;;;;;0.77;0.73;;;22.20;1.00;;;;;;5075929;28;20418;-68
2021/07/29 12:29:43;;;;;;;0.70;0.50;;;21.70;1.00;;;;;;5075931;28;20450;-67
2021/07/29 12:32:29;;;;;;;0.80;0.60;;;21.20;1.00;;;;;;5075867;28;20418;-67
2021/07/29 12:34:55;;;;;;;0.70;0.57;;;21.00;6.80;;;;;;5076002;28;20436;-66
2021/07/29 12:37:31;;;;;;;0.80;0.50;;;21.00;95.40;;;;;;5071815;28;20458;-66
2021/07/29 12:39:57;;;;;;;0.50;0.20;;;21.00;23.40;;;;;;5055985;28;20485;-66
2021/07/29 12:42:29;;;;;;;0.50;0.20;;;21.00;3.90;;;;;;5055669;28;20435;-67
2021/07/29 12:44:59;;;;;;;0.50;0.20;;;21.00;1.00;;;;;;5054382;28;20308;-66
2021/07/29 12:47:25;;;;;;;0.50;0.30;;;21.30;1.00;;;;;;5055105;28;20509;-67
2021/07/29 12:49:51;;;;;;;7.40;0.53;;;21.60;1.00;;;;;;5055229;28;20454;-67
2021/07/29 12:52:26;;;;;;;0.97;0.60;;;21.70;1.00;;;;;;5055239;28;20510;-65
2021/07/29 12:54:59;;;;;;;1.67;0.50;;;21.70;1.00;;;;;;5056846;28;20207;-69
2021/07/29 12:57:24;;;;;;;0.50;0.20;;;21.50;1.00;;;;;;5054840;28;20772;-68
2021/07/29 12:59:50;;;;;;;1.57;0.40;;;21.20;1.00;;;;;;5055354;28;20431;-68
2021/07/29 13:02:15;;;;;;;0.60;0.40;;;21.40;1.00;;;;;;5055108;28;20185;-67